sensor_id;sensor_type;location;lat;lon;timestamp;pressure;altitude;pressure_sealevel;temperature;humidity
21781;BME280;52576;53.614;9.894;2023-11-21T00:00:15;100734.25;;;8.03;100.00
21781;BME280;52576;53.614;9.894;2023-11-21T00:02:19;100729.19;;;8.00;100.00
21781;BME280;52576;53.614;9.894;2023-11-21T00:04:22;100741.50;;;7.98;100.00
21781;BME280;52576;53.614;9.894;2023-11-21T00:06:25;100745.97;;;7.96;100.00
21781;BME280;52576;53.614;9.894;2023-11-21T00:08:28;100745.19;;;7.94;100.00
21781;BME280;52576;53.614;9.894;2023-11-21T00:10:31;100750.59;;;7.91;100.00
21781;BME280;52576;53.614;9.894;2023-11-21T00:12:36;100745.53;;;7.88;100.00
21781;BME280;52576;53.614;9.894;2023-11-21T00:14:39;100756.97;;;7.85;100.00
21781;BME280;52576;53.614;9.894;2023-11-21T00:16:42;100748.41;;;7.83;100.00
21781;BME280;52576;53.614;9.894;2023-11-21T00:18:45;100756.31;;;7.81;100.00
21781;BME280;52576;53.614;9.894;2023-11-21T00:20:49;100765.06;;;7.80;100.00
21781;BME280;52576;53.614;9.894;2023-11-21T00:22:52;100763.41;;;7.79;100.00
21781;BME280;52576;53.614;9.894;2023-11-21T00:24:55;100774.84;;;7.77;100.00
21781;BME280;52576;53.614;9.894;2023-11-21T00:26:57;100775.88;;;7.74;100.00
21781;BME280;52576;53.614;9.894;2023-11-21T00:29:02;100779.56;;;7.70;100.00
21781;BME280;52576;53.614;9.894;2023-11-21T00:31:05;100779.72;;;7.67;100.00
21781;BME280;52576;53.614;9.894;2023-11-21T00:33:08;100778.19;;;7.63;100.00
21781;BME280;52576;53.614;9.894;2023-11-21T00:35:10;100782.75;;;7.60;100.00
21781;BME280;52576;53.614;9.894;2023-11-21T00:37:14;100780.22;;;7.58;100.00
21781;BME280;52576;53.614;9.894;2023-11-21T00:39:16;100787.28;;;7.56;100.00
21781;BME280;52576;53.614;9.894;2023-11-21T00:41:19;100789.13;;;7.54;100.00
21781;BME280;52576;53.614;9.894;2023-11-21T00:43:22;100791.72;;;7.54;100.00
21781;BME280;52576;53.614;9.894;2023-11-21T00:45:27;100797.97;;;7.52;100.00
21781;BME280;52576;53.614;9.894;2023-11-21T00:47:30;100803.28;;;7.50;100.00
21781;BME280;52576;53.614;9.894;2023-11-21T00:49:33;100801.59;;;7.49;100.00
21781;BME280;52576;53.614;9.894;2023-11-21T00:51:37;100806.03;;;7.47;100.00
21781;BME280;52576;53.614;9.894;2023-11-21T00:53:40;100801.91;;;7.43;100.00
21781;BME280;52576;53.614;9.894;2023-11-21T00:55:43;100801.22;;;7.39;100.00
21781;BME280;52576;53.614;9.894;2023-11-21T00:57:46;100809.28;;;7.35;100.00
21781;BME280;52576;53.614;9.894;2023-11-21T00:59:49;100814.66;;;7.32;100.00
21781;BME280;52576;53.614;9.894;2023-11-21T01:01:53;100829.72;;;7.27;100.00
21781;BME280;52576;53.614;9.894;2023-11-21T01:03:56;100829.03;;;7.23;100.00
21781;BME280;52576;53.614;9.894;2023-11-21T01:05:59;100829.13;;;7.22;100.00
21781;BME280;52576;53.614;9.894;2023-11-21T01:08:02;100826.66;;;7.19;100.00
21781;BME280;52576;53.614;9.894;2023-11-21T01:10:06;100838.94;;;7.17;100.00
21781;BME280;52576;53.614;9.894;2023-11-21T01:12:09;100831.28;;;7.13;100.00
21781;BME280;52576;53.614;9.894;2023-11-21T01:14:14;100848.75;;;7.11;100.00
21781;BME280;52576;53.614;9.894;2023-11-21T01:16:19;100841.09;;;7.08;100.00
21781;BME280;52576;53.614;9.894;2023-11-21T01:18:24;100850.75;;;7.06;100.00
21781;BME280;52576;53.614;9.894;2023-11-21T01:20:27;100850.06;;;7.03;100.00
21781;BME280;52576;53.614;9.894;2023-11-21T01:22:30;100857.97;;;7.01;100.00
21781;BME280;52576;53.614;9.894;2023-11-21T01:24:33;100861.66;;;6.97;100.00
21781;BME280;52576;53.614;9.894;2023-11-21T01:26:36;100860.88;;;6.95;100.00
21781;BME280;52576;53.614;9.894;2023-11-21T01:28:39;100860.13;;;6.93;100.00
21781;BME280;52576;53.614;9.894;2023-11-21T01:30:42;100861.03;;;6.92;100.00
21781;BME280;52576;53.614;9.894;2023-11-21T01:32:46;100865.47;;;6.90;100.00
21781;BME280;52576;53.614;9.894;2023-11-21T01:34:50;100871.69;;;6.88;100.00
21781;BME280;52576;53.614;9.894;2023-11-21T01:36:54;100869.16;;;6.86;100.00
21781;BME280;52576;53.614;9.894;2023-11-21T01:38:58;100877.88;;;6.85;100.00
21781;BME280;52576;53.614;9.894;2023-11-21T01:41:01;100879.72;;;6.83;100.00
21781;BME280;52576;53.614;9.894;2023-11-21T01:43:04;100886.75;;;6.81;100.00
21781;BME280;52576;53.614;9.894;2023-11-21T01:45:08;100875.50;;;6.80;100.00
21781;BME280;52576;53.614;9.894;2023-11-21T01:47:11;100876.34;;;6.81;100.00
21781;BME280;52576;53.614;9.894;2023-11-21T01:49:14;100888.59;;;6.79;100.00
21781;BME280;52576;53.614;9.894;2023-11-21T01:51:20;100886.75;;;6.81;100.00
21781;BME280;52576;53.614;9.894;2023-11-21T01:53:24;100882.47;;;6.80;100.00
21781;BME280;52576;53.614;9.894;2023-11-21T01:55:28;100886.75;;;6.81;100.00
21781;BME280;52576;53.614;9.894;2023-11-21T01:57:32;100896.41;;;6.79;100.00
21781;BME280;52576;53.614;9.894;2023-11-21T01:59:36;100900.84;;;6.77;100.00
21781;BME280;52576;53.614;9.894;2023-11-21T02:01:40;100901.78;;;6.76;100.00
21781;BME280;52576;53.614;9.894;2023-11-21T02:03:43;100903.63;;;6.74;100.00
21781;BME280;52576;53.614;9.894;2023-11-21T02:05:47;100903.72;;;6.72;100.00
21781;BME280;52576;53.614;9.894;2023-11-21T02:07:51;100915.13;;;6.70;100.00
21781;BME280;52576;53.614;9.894;2023-11-21T02:09:54;100910.91;;;6.67;100.00
21781;BME280;52576;53.614;9.894;2023-11-21T02:11:57;100915.34;;;6.65;100.00
21781;BME280;52576;53.614;9.894;2023-11-21T02:14:01;100918.94;;;6.63;100.00
21781;BME280;52576;53.614;9.894;2023-11-21T02:16:04;100920.75;;;6.61;100.00
21781;BME280;52576;53.614;9.894;2023-11-21T02:18:08;100919.06;;;6.60;100.00
21781;BME280;52576;53.614;9.894;2023-11-21T02:20:13;100933.00;;;6.59;100.00
21781;BME280;52576;53.614;9.894;2023-11-21T02:22:18;100931.31;;;6.58;100.00
21781;BME280;52576;53.614;9.894;2023-11-21T02:24:23;100930.47;;;6.57;100.00
21781;BME280;52576;53.614;9.894;2023-11-21T02:26:27;100941.03;;;6.54;100.00
21781;BME280;52576;53.614;9.894;2023-11-21T02:28:30;100941.88;;;6.55;100.00
21781;BME280;52576;53.614;9.894;2023-11-21T02:30:33;100938.50;;;6.53;100.00
21781;BME280;52576;53.614;9.894;2023-11-21T02:32:36;100947.22;;;6.52;100.00
21781;BME280;52576;53.614;9.894;2023-11-21T02:34:50;100940.50;;;6.47;100.00
21781;BME280;52576;53.614;9.894;2023-11-21T02:36:53;100955.34;;;6.45;100.00
21781;BME280;52576;53.614;9.894;2023-11-21T02:38:57;100954.56;;;6.43;100.00
21781;BME280;52576;53.614;9.894;2023-11-21T02:41:01;100966.03;;;6.39;100.00
21781;BME280;52576;53.614;9.894;2023-11-21T02:43:06;100963.59;;;6.36;100.00
21781;BME280;52576;53.614;9.894;2023-11-21T02:45:09;100972.22;;;6.37;100.00
21781;BME280;52576;53.614;9.894;2023-11-21T02:47:14;100961.88;;;6.35;100.00
21781;BME280;52576;53.614;9.894;2023-11-21T02:49:18;100968.78;;;6.36;100.00
21781;BME280;52576;53.614;9.894;2023-11-21T02:51:21;100970.63;;;6.34;100.00
21781;BME280;52576;53.614;9.894;2023-11-21T02:53:24;100974.91;;;6.35;100.00
21781;BME280;52576;53.614;9.894;2023-11-21T02:55:27;100979.34;;;6.33;100.00
21781;BME280;52576;53.614;9.894;2023-11-21T02:57:32;100967.22;;;6.32;100.00
21781;BME280;52576;53.614;9.894;2023-11-21T02:59:35;100967.38;;;6.29;100.00
21781;BME280;52576;53.614;9.894;2023-11-21T03:01:38;100976.09;;;6.28;100.00
21781;BME280;52576;53.614;9.894;2023-11-21T03:03:41;100977.00;;;6.27;100.00
21781;BME280;52576;53.614;9.894;2023-11-21T03:05:44;100977.06;;;6.26;100.00
21781;BME280;52576;53.614;9.894;2023-11-21T03:07:47;100979.75;;;6.24;100.00
21781;BME280;52576;53.614;9.894;2023-11-21T03:09:50;100986.81;;;6.22;100.00
21781;BME280;52576;53.614;9.894;2023-11-21T03:11:54;100982.59;;;6.20;100.00
21781;BME280;52576;53.614;9.894;2023-11-21T03:13:58;100985.25;;;6.18;100.00
21781;BME280;52576;53.614;9.894;2023-11-21T03:16:01;100982.78;;;6.15;100.00
21781;BME280;52576;53.614;9.894;2023-11-21T03:18:04;100988.06;;;6.13;100.00
21781;BME280;52576;53.614;9.894;2023-11-21T03:20:08;100987.22;;;6.13;100.00
21781;BME280;52576;53.614;9.894;2023-11-21T03:22:12;100994.19;;;6.12;100.00
21781;BME280;52576;53.614;9.894;2023-11-21T03:24:16;101005.50;;;6.11;100.00
21781;BME280;52576;53.614;9.894;2023-11-21T03:26:21;101009.00;;;6.10;100.00
21781;BME280;52576;53.614;9.894;2023-11-21T03:28:25;101010.75;;;6.10;100.00
21781;BME280;52576;53.614;9.894;2023-11-21T03:30:29;101011.69;;;6.09;100.00
21781;BME280;52576;53.614;9.894;2023-11-21T03:32:33;101017.78;;;6.08;100.00
21781;BME280;52576;53.614;9.894;2023-11-21T03:34:35;101016.94;;;6.07;100.00
21781;BME280;52576;53.614;9.894;2023-11-21T03:36:38;101019.56;;;6.07;100.00
21781;BME280;52576;53.614;9.894;2023-11-21T03:38:40;101019.63;;;6.06;99.91
21781;BME280;52576;53.614;9.894;2023-11-21T03:40:43;101025.72;;;6.05;99.92
21781;BME280;52576;53.614;9.894;2023-11-21T03:42:47;101030.94;;;6.05;99.97
21781;BME280;52576;53.614;9.894;2023-11-21T03:44:50;101029.25;;;6.04;99.96
21781;BME280;52576;53.614;9.894;2023-11-21T03:46:53;101037.06;;;6.04;99.81
21781;BME280;52576;53.614;9.894;2023-11-21T03:48:56;101034.50;;;6.02;99.81
21781;BME280;52576;53.614;9.894;2023-11-21T03:50:59;101039.78;;;6.01;99.67
21781;BME280;52576;53.614;9.894;2023-11-21T03:53:01;101044.16;;;6.00;99.60
21781;BME280;52576;53.614;9.894;2023-11-21T03:55:05;101045.91;;;6.00;99.58
21781;BME280;52576;53.614;9.894;2023-11-21T03:57:09;101044.31;;;5.97;99.44
21781;BME280;52576;53.614;9.894;2023-11-21T03:59:12;101053.88;;;5.97;99.45
21781;BME280;52576;53.614;9.894;2023-11-21T04:01:19;101050.47;;;5.95;99.39
21781;BME280;52576;53.614;9.894;2023-11-21T04:03:25;101054.84;;;5.94;99.40
21781;BME280;52576;53.614;9.894;2023-11-21T04:05:28;101054.00;;;5.94;99.27
21781;BME280;52576;53.614;9.894;2023-11-21T04:07:30;101063.56;;;5.93;99.34
21781;BME280;52576;53.614;9.894;2023-11-21T04:09:33;101067.06;;;5.92;99.34
21781;BME280;52576;53.614;9.894;2023-11-21T04:11:38;101075.72;;;5.93;99.30
21781;BME280;52576;53.614;9.894;2023-11-21T04:13:41;101080.13;;;5.91;99.29
21781;BME280;52576;53.614;9.894;2023-11-21T04:15:45;101080.13;;;5.91;99.37
21781;BME280;52576;53.614;9.894;2023-11-21T04:17:48;101088.84;;;5.90;99.06
21781;BME280;52576;53.614;9.894;2023-11-21T04:19:52;101085.34;;;5.91;99.29
21781;BME280;52576;53.614;9.894;2023-11-21T04:21:54;101086.19;;;5.91;99.31
21781;BME280;52576;53.614;9.894;2023-11-21T04:23:57;101099.06;;;5.94;99.27
21781;BME280;52576;53.614;9.894;2023-11-21T04:26:00;101102.50;;;5.95;99.31
21781;BME280;52576;53.614;9.894;2023-11-21T04:28:04;101092.94;;;5.95;99.36
21781;BME280;52576;53.614;9.894;2023-11-21T04:30:08;101097.31;;;5.95;99.13
21781;BME280;52576;53.614;9.894;2023-11-21T04:32:11;101099.06;;;5.94;99.09
21781;BME280;52576;53.614;9.894;2023-11-21T04:34:15;101100.81;;;5.94;99.05
21781;BME280;52576;53.614;9.894;2023-11-21T04:36:19;101100.81;;;5.94;99.04
21781;BME280;52576;53.614;9.894;2023-11-21T04:38:22;101109.41;;;5.96;99.07
21781;BME280;52576;53.614;9.894;2023-11-21T04:40:25;101105.06;;;5.96;99.03
21781;BME280;52576;53.614;9.894;2023-11-21T04:42:29;101114.63;;;5.96;99.10
21781;BME280;52576;53.614;9.894;2023-11-21T04:44:32;101108.50;;;5.97;98.88
21781;BME280;52576;53.614;9.894;2023-11-21T04:46:35;101116.31;;;5.97;98.83
21781;BME280;52576;53.614;9.894;2023-11-21T04:48:38;101117.97;;;5.98;98.90
21781;BME280;52576;53.614;9.894;2023-11-21T04:50:41;101117.97;;;5.98;98.79
21781;BME280;52576;53.614;9.894;2023-11-21T04:52:45;101117.97;;;5.98;98.65
21781;BME280;52576;53.614;9.894;2023-11-21T04:54:48;101123.16;;;5.98;98.56
21781;BME280;52576;53.614;9.894;2023-11-21T04:56:52;101127.56;;;5.97;98.55
21781;BME280;52576;53.614;9.894;2023-11-21T04:58:55;101137.13;;;5.97;98.44
21781;BME280;52576;53.614;9.894;2023-11-21T05:00:58;101130.22;;;5.96;98.40
21781;BME280;52576;53.614;9.894;2023-11-21T05:03:01;101138.88;;;5.96;98.26
21781;BME280;52576;53.614;9.894;2023-11-21T05:05:06;101147.53;;;5.97;98.31
21781;BME280;52576;53.614;9.894;2023-11-21T05:07:09;101137.25;;;5.94;98.13
21781;BME280;52576;53.614;9.894;2023-11-21T05:09:14;101139.84;;;5.94;98.12
21781;BME280;52576;53.614;9.894;2023-11-21T05:11:27;101145.97;;;5.93;98.01
21781;BME280;52576;53.614;9.894;2023-11-21T05:13:31;101150.38;;;5.91;97.94
21781;BME280;52576;53.614;9.894;2023-11-21T05:15:34;101149.53;;;5.90;97.93
21781;BME280;52576;53.614;9.894;2023-11-21T05:17:36;101154.78;;;5.89;97.99
21781;BME280;52576;53.614;9.894;2023-11-21T05:19:41;101153.06;;;5.88;97.81
21781;BME280;52576;53.614;9.894;2023-11-21T05:21:47;101161.78;;;5.87;97.85
21781;BME280;52576;53.614;9.894;2023-11-21T05:23:50;101166.19;;;5.85;97.84
21781;BME280;52576;53.614;9.894;2023-11-21T05:25:54;101165.28;;;5.86;97.82
21781;BME280;52576;53.614;9.894;2023-11-21T05:27:58;101170.50;;;5.86;97.93
21781;BME280;52576;53.614;9.894;2023-11-21T05:30:04;101170.50;;;5.86;97.80
21781;BME280;52576;53.614;9.894;2023-11-21T05:32:08;101169.59;;;5.87;97.88
21781;BME280;52576;53.614;9.894;2023-11-21T05:34:15;101175.59;;;5.89;97.80
21781;BME280;52576;53.614;9.894;2023-11-21T05:36:19;101172.09;;;5.90;98.04
21781;BME280;52576;53.614;9.894;2023-11-21T05:38:22;101185.88;;;5.92;98.04
21781;BME280;52576;53.614;9.894;2023-11-21T05:40:26;101185.88;;;5.92;97.99
21781;BME280;52576;53.614;9.894;2023-11-21T05:42:33;101181.53;;;5.92;97.97
21781;BME280;52576;53.614;9.894;2023-11-21T05:44:36;101191.03;;;5.93;97.90
21781;BME280;52576;53.614;9.894;2023-11-21T05:46:40;101191.03;;;5.93;97.92
21781;BME280;52576;53.614;9.894;2023-11-21T05:48:45;101194.53;;;5.92;97.59
21781;BME280;52576;53.614;9.894;2023-11-21T05:50:48;101203.19;;;5.93;97.68
21781;BME280;52576;53.614;9.894;2023-11-21T05:52:52;101209.25;;;5.93;97.65
21781;BME280;52576;53.614;9.894;2023-11-21T05:54:55;101223.09;;;5.94;97.54
21781;BME280;52576;53.614;9.894;2023-11-21T05:56:57;101223.03;;;5.95;97.57
21781;BME280;52576;53.614;9.894;2023-11-21T05:59:01;101221.28;;;5.96;97.49
21781;BME280;52576;53.614;9.894;2023-11-21T06:01:05;101232.44;;;5.98;97.70
21781;BME280;52576;53.614;9.894;2023-11-21T06:03:09;101234.16;;;5.99;97.64
21781;BME280;52576;53.614;9.894;2023-11-21T06:05:12;101235.84;;;6.00;97.44
21781;BME280;52576;53.614;9.894;2023-11-21T06:07:16;101234.16;;;5.99;97.44
21781;BME280;52576;53.614;9.894;2023-11-21T06:09:19;101236.69;;;6.00;97.37
21781;BME280;52576;53.614;9.894;2023-11-21T06:11:22;101240.13;;;6.01;97.40
21781;BME280;52576;53.614;9.894;2023-11-21T06:13:26;101248.78;;;6.01;97.16
21781;BME280;52576;53.614;9.894;2023-11-21T06:15:30;101253.16;;;6.01;97.24
21781;BME280;52576;53.614;9.894;2023-11-21T06:17:34;101255.75;;;6.01;97.16
21781;BME280;52576;53.614;9.894;2023-11-21T06:19:38;101257.44;;;6.02;96.97
21781;BME280;52576;53.614;9.894;2023-11-21T06:21:45;101260.03;;;6.02;96.98
21781;BME280;52576;53.614;9.894;2023-11-21T06:23:48;101258.34;;;6.01;97.03
21781;BME280;52576;53.614;9.894;2023-11-21T06:25:54;101266.16;;;6.01;96.82
21781;BME280;52576;53.614;9.894;2023-11-21T06:27:59;101262.72;;;6.00;96.82
21781;BME280;52576;53.614;9.894;2023-11-21T06:30:03;101268.75;;;6.01;96.79
21781;BME280;52576;53.614;9.894;2023-11-21T06:32:07;101269.59;;;6.01;96.74
21781;BME280;52576;53.614;9.894;2023-11-21T06:34:10;101270.44;;;6.02;96.63
21781;BME280;52576;53.614;9.894;2023-11-21T06:36:14;101273.06;;;6.02;96.68
21781;BME280;52576;53.614;9.894;2023-11-21T06:38:17;101266.88;;;6.04;96.75
21781;BME280;52576;53.614;9.894;2023-11-21T06:40:21;101279.00;;;6.05;96.85
21781;BME280;52576;53.614;9.894;2023-11-21T06:42:25;101285.03;;;6.06;96.95
21781;BME280;52576;53.614;9.894;2023-11-21T06:44:28;101289.34;;;6.07;97.00
21781;BME280;52576;53.614;9.894;2023-11-21T06:46:31;101291.94;;;6.07;96.85
21781;BME280;52576;53.614;9.894;2023-11-21T06:48:36;101297.16;;;6.07;96.97
21781;BME280;52576;53.614;9.894;2023-11-21T06:50:40;101299.75;;;6.07;97.06
21781;BME280;52576;53.614;9.894;2023-11-21T06:52:43;101311.06;;;6.06;96.95
21781;BME280;52576;53.614;9.894;2023-11-21T06:54:47;101304.94;;;6.07;97.02
21781;BME280;52576;53.614;9.894;2023-11-21T06:56:51;101309.31;;;6.06;96.90
21781;BME280;52576;53.614;9.894;2023-11-21T06:58:55;101314.50;;;6.06;96.85
21781;BME280;52576;53.614;9.894;2023-11-21T07:00:58;101318.88;;;6.06;96.84
21781;BME280;52576;53.614;9.894;2023-11-21T07:03:01;101317.97;;;6.07;96.71
21781;BME280;52576;53.614;9.894;2023-11-21T07:05:06;101318.88;;;6.06;96.78
21781;BME280;52576;53.614;9.894;2023-11-21T07:07:09;101328.31;;;6.08;96.80
21781;BME280;52576;53.614;9.894;2023-11-21T07:09:12;101323.09;;;6.08;96.75
21781;BME280;52576;53.614;9.894;2023-11-21T07:11:17;101334.38;;;6.09;96.57
21781;BME280;52576;53.614;9.894;2023-11-21T07:13:22;101351.69;;;6.10;96.62
21781;BME280;52576;53.614;9.894;2023-11-21T07:15:25;101356.88;;;6.10;96.54
21781;BME280;52576;53.614;9.894;2023-11-21T07:17:28;101355.91;;;6.12;96.54
21781;BME280;52576;53.614;9.894;2023-11-21T07:19:33;101361.13;;;6.12;96.63
21781;BME280;52576;53.614;9.894;2023-11-21T07:21:38;101365.38;;;6.15;96.65
21781;BME280;52576;53.614;9.894;2023-11-21T07:23:41;101368.75;;;6.17;96.71
21781;BME280;52576;53.614;9.894;2023-11-21T07:25:45;101379.16;;;6.17;96.39
21781;BME280;52576;53.614;9.894;2023-11-21T07:27:49;101379.97;;;6.19;96.37
21781;BME280;52576;53.614;9.894;2023-11-21T07:29:52;101381.59;;;6.22;96.33
21781;BME280;52576;53.614;9.894;2023-11-21T07:31:55;101378.09;;;6.23;96.35
21781;BME280;52576;53.614;9.894;2023-11-21T07:33:58;101385.81;;;6.24;96.24
21781;BME280;52576;53.614;9.894;2023-11-21T07:36:01;101387.50;;;6.25;96.13
21781;BME280;52576;53.614;9.894;2023-11-21T07:38:06;101391.81;;;6.26;95.89
21781;BME280;52576;53.614;9.894;2023-11-21T07:40:08;101392.72;;;6.25;95.98
21781;BME280;52576;53.614;9.894;2023-11-21T07:42:13;101396.94;;;6.28;95.81
21781;BME280;52576;53.614;9.894;2023-11-21T07:44:16;101396.91;;;6.29;95.75
21781;BME280;52576;53.614;9.894;2023-11-21T07:46:21;101396.00;;;6.30;95.63
21781;BME280;52576;53.614;9.894;2023-11-21T07:48:26;101392.47;;;6.31;95.70
21781;BME280;52576;53.614;9.894;2023-11-21T07:50:29;101395.88;;;6.33;95.43
21781;BME280;52576;53.614;9.894;2023-11-21T07:52:32;101400.19;;;6.34;95.50
21781;BME280;52576;53.614;9.894;2023-11-21T07:54:37;101399.25;;;6.35;95.26
21781;BME280;52576;53.614;9.894;2023-11-21T07:56:40;101402.66;;;6.37;95.30
21781;BME280;52576;53.614;9.894;2023-11-21T07:58:43;101404.34;;;6.38;95.10
21781;BME280;52576;53.614;9.894;2023-11-21T08:00:46;101412.16;;;6.38;95.03
21781;BME280;52576;53.614;9.894;2023-11-21T08:02:50;101405.16;;;6.40;95.07
21781;BME280;52576;53.614;9.894;2023-11-21T08:04:53;101415.56;;;6.40;94.91
21781;BME280;52576;53.614;9.894;2023-11-21T08:06:56;101418.09;;;6.42;94.95
21781;BME280;52576;53.614;9.894;2023-11-21T08:09:00;101424.09;;;6.44;94.93
21781;BME280;52576;53.614;9.894;2023-11-21T08:11:05;101423.13;;;6.46;94.87
21781;BME280;52576;53.614;9.894;2023-11-21T08:13:10;101430.03;;;6.47;94.90
21781;BME280;52576;53.614;9.894;2023-11-21T08:15:16;101427.50;;;6.46;94.78
21781;BME280;52576;53.614;9.894;2023-11-21T08:17:19;101433.56;;;6.46;94.67
21781;BME280;52576;53.614;9.894;2023-11-21T08:19:23;101435.38;;;6.44;94.59
21781;BME280;52576;53.614;9.894;2023-11-21T08:21:27;101437.06;;;6.45;94.46
21781;BME280;52576;53.614;9.894;2023-11-21T08:23:31;101441.38;;;6.46;94.43
21781;BME280;52576;53.614;9.894;2023-11-21T08:25:34;101436.09;;;6.48;94.30
21781;BME280;52576;53.614;9.894;2023-11-21T08:27:38;101447.38;;;6.49;94.30
21781;BME280;52576;53.614;9.894;2023-11-21T08:29:42;101439.56;;;6.49;94.18
21781;BME280;52576;53.614;9.894;2023-11-21T08:31:45;101446.47;;;6.50;94.13
21781;BME280;52576;53.614;9.894;2023-11-21T08:33:48;101443.84;;;6.50;94.09
21781;BME280;52576;53.614;9.894;2023-11-21T08:35:51;101461.16;;;6.51;93.87
21781;BME280;52576;53.614;9.894;2023-11-21T08:37:55;101461.16;;;6.51;93.84
21781;BME280;52576;53.614;9.894;2023-11-21T08:39:58;101471.56;;;6.51;93.65
21781;BME280;52576;53.614;9.894;2023-11-21T08:42:02;101473.25;;;6.52;93.64
21781;BME280;52576;53.614;9.894;2023-11-21T08:44:07;101469.75;;;6.53;93.58
21781;BME280;52576;53.614;9.894;2023-11-21T08:46:10;101474.97;;;6.53;93.38
21781;BME280;52576;53.614;9.894;2023-11-21T08:48:13;101480.16;;;6.53;93.32
21781;BME280;52576;53.614;9.894;2023-11-21T08:50:16;101480.06;;;6.56;93.53
21781;BME280;52576;53.614;9.894;2023-11-21T08:52:19;101489.50;;;6.58;93.57
21781;BME280;52576;53.614;9.894;2023-11-21T08:54:24;101492.91;;;6.60;93.48
21781;BME280;52576;53.614;9.894;2023-11-21T08:56:28;101501.56;;;6.61;93.38
21781;BME280;52576;53.614;9.894;2023-11-21T08:58:31;101502.47;;;6.60;93.15
21781;BME280;52576;53.614;9.894;2023-11-21T09:00:36;101505.94;;;6.60;93.21
21781;BME280;52576;53.614;9.894;2023-11-21T09:02:40;101513.78;;;6.59;92.92
21781;BME280;52576;53.614;9.894;2023-11-21T09:04:44;101513.84;;;6.57;92.86
21781;BME280;52576;53.614;9.894;2023-11-21T09:06:49;101519.19;;;6.54;92.85
21781;BME280;52576;53.614;9.894;2023-11-21T09:08:52;101514.94;;;6.52;92.91
21781;BME280;52576;53.614;9.894;2023-11-21T09:10:55;101517.59;;;6.50;92.87
21781;BME280;52576;53.614;9.894;2023-11-21T09:12:57;101525.50;;;6.49;93.00
21781;BME280;52576;53.614;9.894;2023-11-21T09:15:02;101525.59;;;6.45;93.06
21781;BME280;52576;53.614;9.894;2023-11-21T09:17:08;101536.94;;;6.44;93.34
21781;BME280;52576;53.614;9.894;2023-11-21T09:19:13;101534.44;;;6.41;93.42
21781;BME280;52576;53.614;9.894;2023-11-21T09:21:17;101537.94;;;6.40;93.47
21781;BME280;52576;53.614;9.894;2023-11-21T09:23:20;101536.25;;;6.39;93.67
21781;BME280;52576;53.614;9.894;2023-11-21T09:25:22;101536.25;;;6.39;93.69
21781;BME280;52576;53.614;9.894;2023-11-21T09:27:25;101543.16;;;6.40;93.88
21781;BME280;52576;53.614;9.894;2023-11-21T09:29:28;101549.22;;;6.41;93.99
21781;BME280;52576;53.614;9.894;2023-11-21T09:31:31;101541.34;;;6.42;94.01
21781;BME280;52576;53.614;9.894;2023-11-21T09:33:37;101553.47;;;6.43;94.16
21781;BME280;52576;53.614;9.894;2023-11-21T09:35:40;101562.16;;;6.42;94.07
21781;BME280;52576;53.614;9.894;2023-11-21T09:37:43;101556.13;;;6.42;94.21
21781;BME280;52576;53.614;9.894;2023-11-21T09:39:50;101562.16;;;6.42;94.28
21781;BME280;52576;53.614;9.894;2023-11-21T09:41:58;101570.88;;;6.41;94.16
21781;BME280;52576;53.614;9.894;2023-11-21T09:44:03;101577.91;;;6.39;94.04
21781;BME280;52576;53.614;9.894;2023-11-21T09:46:09;101582.25;;;6.39;94.11
21781;BME280;52576;53.614;9.894;2023-11-21T09:48:15;101584.03;;;6.38;94.08
21781;BME280;52576;53.614;9.894;2023-11-21T09:50:21;101588.31;;;6.39;94.17
21781;BME280;52576;53.614;9.894;2023-11-21T09:52:26;101592.63;;;6.40;94.05
21781;BME280;52576;53.614;9.894;2023-11-21T09:54:30;101593.53;;;6.39;94.07
21781;BME280;52576;53.614;9.894;2023-11-21T09:56:34;101591.81;;;6.38;94.08
21781;BME280;52576;53.614;9.894;2023-11-21T09:58:37;101597.84;;;6.40;94.10
21781;BME280;52576;53.614;9.894;2023-11-21T10:00:41;101599.53;;;6.41;93.97
21781;BME280;52576;53.614;9.894;2023-11-21T10:02:44;101597.84;;;6.40;93.79
21781;BME280;52576;53.614;9.894;2023-11-21T10:04:48;101600.44;;;6.40;93.75
21781;BME280;52576;53.614;9.894;2023-11-21T10:06:54;101590.03;;;6.40;93.59
21781;BME280;52576;53.614;9.894;2023-11-21T10:08:57;101593.53;;;6.39;93.16
21781;BME280;52576;53.614;9.894;2023-11-21T10:11:02;101594.31;;;6.41;93.14
21781;BME280;52576;53.614;9.894;2023-11-21T10:13:09;101589.06;;;6.43;93.00
21781;BME280;52576;53.614;9.894;2023-11-21T10:15:14;101597.63;;;6.46;92.71
21781;BME280;52576;53.614;9.894;2023-11-21T10:17:19;101593.22;;;6.49;92.58
21781;BME280;52576;53.614;9.894;2023-11-21T10:19:23;101603.38;;;6.55;92.54
21781;BME280;52576;53.614;9.894;2023-11-21T10:21:28;101605.75;;;6.61;92.36
21781;BME280;52576;53.614;9.894;2023-11-21T10:23:33;101609.72;;;6.71;92.43
21781;BME280;52576;53.614;9.894;2023-11-21T10:25:36;101607.78;;;6.76;91.95
21781;BME280;52576;53.614;9.894;2023-11-21T10:27:39;101612.88;;;6.79;91.60
21781;BME280;52576;53.614;9.894;2023-11-21T10:29:41;101616.28;;;6.81;91.23
21781;BME280;52576;53.614;9.894;2023-11-21T10:31:44;101625.78;;;6.82;91.14
21781;BME280;52576;53.614;9.894;2023-11-21T10:33:48;101629.31;;;6.81;90.60
21781;BME280;52576;53.614;9.894;2023-11-21T10:35:50;101631.91;;;6.81;90.32
21781;BME280;52576;53.614;9.894;2023-11-21T10:38:00;101629.34;;;6.79;89.91
21781;BME280;52576;53.614;9.894;2023-11-21T10:40:05;101631.91;;;6.81;89.82
21781;BME280;52576;53.614;9.894;2023-11-21T10:42:08;101624.88;;;6.83;89.50
21781;BME280;52576;53.614;9.894;2023-11-21T10:44:13;101635.19;;;6.86;89.21
21781;BME280;52576;53.614;9.894;2023-11-21T10:46:22;101630.72;;;6.90;89.05
21781;BME280;52576;53.614;9.894;2023-11-21T10:48:27;101635.78;;;6.94;88.84
21781;BME280;52576;53.614;9.894;2023-11-21T10:50:32;101638.25;;;6.97;88.71
21781;BME280;52576;53.614;9.894;2023-11-21T10:52:34;101636.31;;;7.02;88.60